createdAt,value
2022-11-19T00:01:50.848Z,8.90
2022-11-19T00:04:23.237Z,8.90
2022-11-19T00:06:55.264Z,8.70
2022-11-19T00:09:27.283Z,8.70
2022-11-19T00:12:17.878Z,8.80
2022-11-19T00:14:49.766Z,8.80
2022-11-19T00:17:21.835Z,8.70
2022-11-19T00:19:53.721Z,8.70
2022-11-19T00:22:25.738Z,8.70
2022-11-19T00:24:57.701Z,8.60
2022-11-19T00:27:31.121Z,8.70
2022-11-19T00:30:11.038Z,8.70
2022-11-19T00:32:52.150Z,8.70
2022-11-19T00:35:24.037Z,8.70
2022-11-19T00:37:56.351Z,8.60
2022-11-19T00:40:28.286Z,8.70
2022-11-19T00:43:18.535Z,8.60
2022-11-19T00:45:50.518Z,8.60
2022-11-19T00:48:22.422Z,8.60
2022-11-19T00:50:54.368Z,8.60
2022-11-19T00:53:26.360Z,8.60
2022-11-19T00:56:03.371Z,8.70
2022-11-19T00:58:35.645Z,8.70
2022-11-19T01:01:08.720Z,8.70
2022-11-19T01:03:41.768Z,8.80
2022-11-19T01:06:19.171Z,8.80
2022-11-19T01:08:52.921Z,8.80
2022-11-19T01:11:29.939Z,8.70
2022-11-19T01:14:02.988Z,8.70
2022-11-19T01:16:40.039Z,8.70
2022-11-19T01:19:12.229Z,8.70
2022-11-19T01:21:44.176Z,8.70
2022-11-19T01:24:16.023Z,8.60
2022-11-19T01:26:47.951Z,8.60
2022-11-19T01:29:20.176Z,8.50
2022-11-19T01:31:52.348Z,8.40
2022-11-19T01:34:24.261Z,8.40
2022-11-19T01:36:56.143Z,8.40
2022-11-19T01:39:28.885Z,8.40
2022-11-19T01:42:01.088Z,8.50
2022-11-19T01:45:01.222Z,8.50
2022-11-19T01:47:33.754Z,8.50
2022-11-19T01:50:06.307Z,8.60
2022-11-19T01:52:39.916Z,8.60
2022-11-19T01:55:12.324Z,8.60
2022-11-19T01:57:44.647Z,8.60
2022-11-19T02:00:17.349Z,8.60
2022-11-19T02:02:49.382Z,8.50
2022-11-19T02:05:21.846Z,8.40
2022-11-19T02:07:58.687Z,8.40
2022-11-19T02:11:06.378Z,8.50
2022-11-19T02:13:47.446Z,8.40
2022-11-19T02:16:43.210Z,8.40
2022-11-19T02:19:51.960Z,8.50
2022-11-19T02:22:38.611Z,8.50
2022-11-19T02:25:39.605Z,8.40
2022-11-19T02:28:29.032Z,8.50
2022-11-19T02:31:10.870Z,8.50
2022-11-19T02:34:03.080Z,8.50
2022-11-19T02:36:42.870Z,8.50
2022-11-19T02:39:32.487Z,8.50
2022-11-19T02:42:39.216Z,8.50
2022-11-19T02:45:24.656Z,8.40
2022-11-19T02:48:06.030Z,8.40
2022-11-19T02:50:46.065Z,8.20
2022-11-19T02:53:18.871Z,8.10
2022-11-19T02:56:09.348Z,8.10
2022-11-19T02:59:08.010Z,8.10
2022-11-19T03:02:02.516Z,8.10
2022-11-19T03:04:34.570Z,8.00
2022-11-19T03:07:16.986Z,7.90
2022-11-19T03:10:02.834Z,7.90
2022-11-19T03:12:40.541Z,8.10
2022-11-19T03:15:55.104Z,8.20
2022-11-19T03:18:40.315Z,8.30
2022-11-19T03:21:23.191Z,8.40
2022-11-19T03:24:00.646Z,8.40
2022-11-19T03:27:04.361Z,8.40
2022-11-19T03:29:41.490Z,8.40
2022-11-19T03:32:29.510Z,8.30
2022-11-19T03:35:07.405Z,8.20
2022-11-19T03:37:42.283Z,8.00
2022-11-19T03:40:16.613Z,7.90
2022-11-19T03:42:53.173Z,7.80
2022-11-19T03:45:32.099Z,7.80
2022-11-19T03:48:04.972Z,7.90
2022-11-19T03:50:58.927Z,7.90
2022-11-19T03:53:34.232Z,7.90
2022-11-19T03:56:10.669Z,7.90
2022-11-19T03:58:45.662Z,7.90
2022-11-19T04:01:17.618Z,7.90
2022-11-19T04:04:08.197Z,7.80
2022-11-19T04:06:40.121Z,7.80
2022-11-19T04:09:12.229Z,7.70
2022-11-19T04:14:16.257Z,7.70
2022-11-19T04:16:48.216Z,7.70
2022-11-19T04:19:20.376Z,7.60
2022-11-19T04:21:52.621Z,7.50
2022-11-19T04:24:24.620Z,7.50
2022-11-19T04:26:56.517Z,7.60
2022-11-19T04:29:28.445Z,7.60
2022-11-19T04:32:00.405Z,7.60
2022-11-19T04:34:32.567Z,7.60
2022-11-19T04:37:04.599Z,7.60
2022-11-19T04:39:36.511Z,7.60
2022-11-19T04:42:08.769Z,7.50
2022-11-19T04:44:41.103Z,7.50
2022-11-19T04:47:13.163Z,7.40
2022-11-19T04:49:45.282Z,7.40
2022-11-19T04:52:17.584Z,7.40
2022-11-19T04:54:49.491Z,7.40
2022-11-19T04:57:21.427Z,7.40
2022-11-19T04:59:53.386Z,7.40
2022-11-19T05:02:25.327Z,7.40
2022-11-19T05:04:57.260Z,7.40
2022-11-19T05:07:29.348Z,7.30
2022-11-19T05:10:01.804Z,7.20
2022-11-19T05:12:33.730Z,7.30
2022-11-19T05:15:06.271Z,7.30
2022-11-19T05:17:38.151Z,7.40
2022-11-19T05:20:10.533Z,7.50
2022-11-19T05:22:42.477Z,7.50
2022-11-19T05:25:14.478Z,7.40
2022-11-19T05:27:46.624Z,7.40
2022-11-19T05:30:18.685Z,7.40
2022-11-19T05:32:50.677Z,7.50
2022-11-19T05:35:23.302Z,7.50
2022-11-19T05:37:55.249Z,7.60
2022-11-19T05:40:27.250Z,7.60
2022-11-19T05:43:04.623Z,7.60
2022-11-19T05:45:36.522Z,7.50
2022-11-19T05:48:08.443Z,7.50
2022-11-19T05:50:42.507Z,7.50
2022-11-19T05:53:14.381Z,7.50
2022-11-19T05:55:46.929Z,7.50
2022-11-19T05:58:18.837Z,7.40
2022-11-19T06:00:56.001Z,7.40
2022-11-19T06:03:27.981Z,7.40
2022-11-19T06:05:59.962Z,7.50
2022-11-19T06:08:31.884Z,7.50
2022-11-19T06:11:04.601Z,7.50
2022-11-19T06:13:36.472Z,7.50
2022-11-19T06:16:08.320Z,7.50
2022-11-19T06:18:40.231Z,7.40
2022-11-19T06:21:12.483Z,7.40
2022-11-19T06:23:44.385Z,7.40
2022-11-19T06:26:23.661Z,7.40
2022-11-19T06:28:56.431Z,7.40
2022-11-19T06:31:28.376Z,7.40
2022-11-19T06:34:00.577Z,7.50
2022-11-19T06:36:38.939Z,7.50
2022-11-19T06:39:13.016Z,7.60
2022-11-19T06:41:44.988Z,7.70
2022-11-19T06:44:17.177Z,7.80
2022-11-19T06:46:49.098Z,7.80
2022-11-19T06:49:20.956Z,7.80
2022-11-19T06:51:52.780Z,7.80
2022-11-19T06:54:24.716Z,7.90
2022-11-19T06:56:56.712Z,8.00
2022-11-19T06:59:29.402Z,8.00
2022-11-19T07:02:01.321Z,8.00
2022-11-19T07:04:33.284Z,8.00
2022-11-19T07:07:06.002Z,8.00
2022-11-19T07:09:38.079Z,8.10
2022-11-19T07:12:10.001Z,8.10
2022-11-19T07:14:41.988Z,8.10
2022-11-19T07:17:13.949Z,8.10
2022-11-19T07:19:45.870Z,8.10
2022-11-19T07:22:17.742Z,8.20
2022-11-19T07:24:49.600Z,8.20
2022-11-19T07:27:21.452Z,8.20
2022-11-19T07:29:53.298Z,8.20
2022-11-19T07:32:25.185Z,8.20
2022-11-19T07:34:57.612Z,8.30
2022-11-19T07:37:29.538Z,8.40
2022-11-19T07:40:01.585Z,8.60
2022-11-19T07:42:52.947Z,8.90
2022-11-19T07:45:24.856Z,9.10
2022-11-19T07:47:56.772Z,9.50
2022-11-19T07:50:28.586Z,9.70
2022-11-19T07:53:00.584Z,9.90
2022-11-19T07:55:32.716Z,10.20
2022-11-19T07:58:05.648Z,10.60
2022-11-19T08:00:37.461Z,11.00
2022-11-19T08:03:11.273Z,11.30
2022-11-19T08:05:43.120Z,11.30
2022-11-19T08:08:14.994Z,11.40
2022-11-19T08:10:46.892Z,11.50
2022-11-19T08:13:18.815Z,11.50
2022-11-19T08:15:50.677Z,11.80
2022-11-19T08:18:25.061Z,12.00
2022-11-19T08:21:11.119Z,12.10
2022-11-19T08:23:44.225Z,12.40
2022-11-19T08:26:16.011Z,12.50
2022-11-19T08:28:47.912Z,12.50
2022-11-19T08:31:19.973Z,12.50
2022-11-19T08:33:51.816Z,12.70
2022-11-19T08:36:23.736Z,12.80
2022-11-19T08:39:00.580Z,12.90
2022-11-19T08:41:51.689Z,12.90
2022-11-19T08:44:23.764Z,13.20
2022-11-19T08:46:55.809Z,13.60
2022-11-19T08:49:27.766Z,13.70
2022-11-19T08:51:59.813Z,13.80
2022-11-19T08:54:31.748Z,14.20
2022-11-19T08:57:03.677Z,14.40
2022-11-19T08:59:35.544Z,14.90
2022-11-19T09:02:10.905Z,15.20
2022-11-19T09:04:42.917Z,15.10
2022-11-19T09:07:14.799Z,14.70
2022-11-19T09:09:47.292Z,14.40
2022-11-19T09:12:19.202Z,14.30
2022-11-19T09:14:51.117Z,14.00
2022-11-19T09:17:22.940Z,13.90
2022-11-19T09:19:55.227Z,13.70
2022-11-19T09:22:27.913Z,13.40
2022-11-19T09:24:59.800Z,13.10
2022-11-19T09:27:31.711Z,13.00
2022-11-19T09:30:07.257Z,13.00
2022-11-19T09:32:39.140Z,13.10
2022-11-19T09:35:11.043Z,13.40
2022-11-19T09:37:42.987Z,13.80
2022-11-19T09:40:23.263Z,14.30
2022-11-19T09:43:12.594Z,14.60
2022-11-19T09:45:52.360Z,14.90
2022-11-19T09:48:24.205Z,15.40
2022-11-19T09:51:03.249Z,15.70
2022-11-19T09:53:50.645Z,15.90
2022-11-19T09:56:27.493Z,15.70
2022-11-19T09:59:03.111Z,15.90
2022-11-19T10:01:36.853Z,16.10
2022-11-19T10:04:11.608Z,16.60
2022-11-19T10:06:59.928Z,16.70
2022-11-19T10:10:06.570Z,16.90
2022-11-19T10:13:11.671Z,17.30
2022-11-19T10:16:01.584Z,17.30
2022-11-19T10:18:36.217Z,17.70
2022-11-19T10:21:28.985Z,17.90
2022-11-19T10:24:08.412Z,18.10
2022-11-19T10:26:41.313Z,18.50
2022-11-19T10:29:20.290Z,19.10
2022-11-19T10:31:52.902Z,18.80
2022-11-19T10:34:31.431Z,18.10
2022-11-19T10:37:14.227Z,17.40
2022-11-19T10:39:57.785Z,16.70
2022-11-19T10:42:36.498Z,16.50
2022-11-19T10:45:40.589Z,15.80
2022-11-19T10:48:24.738Z,15.20
2022-11-19T10:51:00.022Z,14.70
2022-11-19T10:53:38.190Z,14.30
2022-11-19T10:56:17.422Z,14.00
2022-11-19T10:58:54.470Z,14.00
2022-11-19T11:01:33.133Z,14.10
2022-11-19T11:04:15.914Z,14.20
2022-11-19T11:06:53.025Z,14.30
2022-11-19T11:09:43.827Z,14.20
2022-11-19T11:12:40.597Z,14.20
2022-11-19T11:15:21.535Z,14.30
2022-11-19T11:18:05.329Z,14.40
2022-11-19T11:20:40.090Z,14.30
2022-11-19T11:23:29.304Z,14.30
2022-11-19T11:26:12.887Z,14.30
2022-11-19T11:28:59.336Z,14.30
2022-11-19T11:31:37.212Z,14.30
2022-11-19T11:34:43.743Z,14.30
2022-11-19T11:37:16.304Z,14.20
2022-11-19T11:39:53.361Z,14.10
2022-11-19T11:42:28.712Z,14.10
2022-11-19T11:45:01.586Z,14.10
2022-11-19T11:47:39.758Z,14.10
2022-11-19T11:50:25.593Z,14.20
2022-11-19T11:53:00.461Z,14.30
2022-11-19T11:55:33.339Z,14.40
2022-11-19T11:58:24.115Z,14.50
2022-11-19T12:01:15.834Z,14.60
2022-11-19T12:03:56.356Z,14.70
2022-11-19T12:06:48.084Z,14.70
2022-11-19T12:09:32.950Z,14.60
2022-11-19T12:12:14.814Z,14.50
2022-11-19T12:15:22.316Z,14.40
2022-11-19T12:18:03.281Z,14.40
2022-11-19T12:20:45.580Z,14.40
2022-11-19T12:23:35.237Z,14.50
2022-11-19T12:26:13.936Z,14.60
2022-11-19T12:29:04.069Z,14.80
2022-11-19T12:32:04.098Z,15.00
2022-11-19T12:35:08.135Z,15.10
2022-11-19T12:37:52.372Z,15.10
2022-11-19T12:40:41.459Z,14.90
2022-11-19T12:43:37.880Z,14.80
2022-11-19T12:46:13.652Z,14.70
2022-11-19T12:49:06.778Z,14.70
2022-11-19T12:51:47.813Z,14.70
2022-11-19T12:54:35.682Z,14.70
2022-11-19T12:57:45.588Z,14.70
2022-11-19T13:00:21.533Z,14.70
2022-11-19T13:03:01.551Z,14.60
2022-11-19T13:05:54.383Z,14.50
2022-11-19T13:08:26.335Z,14.50
2022-11-19T13:11:06.162Z,14.40
2022-11-19T13:13:43.956Z,14.40
2022-11-19T13:16:20.140Z,14.30
2022-11-19T13:19:07.537Z,14.30
2022-11-19T13:21:44.793Z,14.30
2022-11-19T13:24:32.230Z,14.30
2022-11-19T13:27:07.543Z,14.20
2022-11-19T13:29:50.572Z,14.20
2022-11-19T13:32:50.622Z,14.20
2022-11-19T13:35:28.665Z,14.20
2022-11-19T13:38:06.337Z,14.20
2022-11-19T13:40:47.408Z,14.20
2022-11-19T13:43:40.220Z,14.10
2022-11-19T13:46:31.585Z,14.10
2022-11-19T13:49:25.392Z,13.90
2022-11-19T13:52:00.401Z,13.90
2022-11-19T13:54:41.380Z,13.90
2022-11-19T13:57:27.242Z,14.00
2022-11-19T14:00:03.936Z,14.10
2022-11-19T14:03:11.196Z,14.20
2022-11-19T14:06:07.713Z,14.20
2022-11-19T14:08:57.476Z,14.20
2022-11-19T14:11:56.385Z,14.20
2022-11-19T14:15:12.826Z,14.30
2022-11-19T14:18:14.957Z,14.30
2022-11-19T14:21:05.341Z,14.30
2022-11-19T14:24:09.333Z,14.30
2022-11-19T14:26:41.408Z,14.30
2022-11-19T14:29:22.553Z,14.20
2022-11-19T14:32:00.712Z,14.20
2022-11-19T14:34:35.108Z,14.10
2022-11-19T14:37:21.766Z,14.10
2022-11-19T14:40:27.660Z,14.10
2022-11-19T14:43:21.068Z,13.90
2022-11-19T14:46:04.796Z,13.90
2022-11-19T14:48:39.469Z,13.80
2022-11-19T14:51:31.740Z,13.80
2022-11-19T14:54:15.814Z,13.90
2022-11-19T14:56:59.275Z,14.00
2022-11-19T14:59:35.629Z,13.90
2022-11-19T15:02:35.747Z,13.90
2022-11-19T15:05:21.970Z,13.90
2022-11-19T15:08:18.369Z,13.80
2022-11-19T15:11:03.937Z,13.70
2022-11-19T15:13:40.967Z,13.70
2022-11-19T15:16:19.719Z,13.60
2022-11-19T15:19:10.885Z,13.50
2022-11-19T15:22:11.619Z,13.40
2022-11-19T15:24:54.119Z,13.40
2022-11-19T15:27:47.078Z,13.40
2022-11-19T15:30:26.684Z,13.30
2022-11-19T15:33:17.228Z,13.20
2022-11-19T15:36:03.952Z,13.10
2022-11-19T15:39:09.447Z,13.10
2022-11-19T15:42:04.195Z,13.00
2022-11-19T15:44:52.029Z,12.90
2022-11-19T15:47:57.273Z,12.80
2022-11-19T15:50:29.595Z,12.70
2022-11-19T15:53:13.985Z,12.60
2022-11-19T15:55:56.867Z,12.40
2022-11-19T15:58:55.384Z,12.20
2022-11-19T16:01:28.398Z,12.10
2022-11-19T16:04:07.869Z,12.10
2022-11-19T16:06:44.875Z,12.10
2022-11-19T16:09:22.907Z,12.20
2022-11-19T16:12:14.907Z,12.20
2022-11-19T16:15:09.268Z,12.30
2022-11-19T16:17:47.518Z,12.30
2022-11-19T16:20:24.526Z,12.20
2022-11-19T16:22:56.513Z,12.10
2022-11-19T16:25:35.508Z,12.10
2022-11-19T16:28:25.947Z,12.00
2022-11-19T16:31:03.865Z,12.00
2022-11-19T16:33:35.945Z,11.90
2022-11-19T16:36:20.413Z,11.80
2022-11-19T16:38:53.971Z,11.80
2022-11-19T16:41:45.137Z,11.80
2022-11-19T16:44:21.307Z,11.80
2022-11-19T16:46:53.779Z,11.80
2022-11-19T16:49:48.516Z,11.80
2022-11-19T16:52:36.474Z,11.60
2022-11-19T16:55:24.023Z,11.40
2022-11-19T16:57:58.676Z,11.20
2022-11-19T17:00:36.902Z,11.20
2022-11-19T17:03:23.922Z,11.20
2022-11-19T17:05:59.075Z,11.30
2022-11-19T17:08:39.330Z,11.30
2022-11-19T17:11:56.212Z,11.30
2022-11-19T17:14:31.142Z,11.30
2022-11-19T17:17:04.050Z,11.30
2022-11-19T17:19:36.863Z,11.30
2022-11-19T17:22:18.709Z,11.20
2022-11-19T17:24:51.099Z,11.20
2022-11-19T17:27:23.429Z,11.20
2022-11-19T17:30:08.794Z,11.30
2022-11-19T17:32:43.921Z,11.30
2022-11-19T17:35:39.180Z,11.20
2022-11-19T17:38:24.047Z,11.10
2022-11-19T17:41:01.311Z,11.10
2022-11-19T17:43:57.387Z,11.10
2022-11-19T17:46:30.146Z,11.20
2022-11-19T17:49:02.023Z,11.00
2022-11-19T17:51:33.900Z,10.90
2022-11-19T17:54:10.105Z,10.90
2022-11-19T17:56:42.531Z,10.90
2022-11-19T17:59:14.667Z,11.00
2022-11-19T18:01:46.696Z,11.10
2022-11-19T18:04:19.298Z,11.10
2022-11-19T18:06:51.546Z,11.20
2022-11-19T18:09:23.736Z,11.30
2022-11-19T18:11:55.764Z,11.20
2022-11-19T18:14:27.612Z,11.20
2022-11-19T18:16:59.728Z,11.10
2022-11-19T18:19:31.700Z,11.00
2022-11-19T18:22:03.825Z,11.00
2022-11-19T18:24:39.413Z,10.90
2022-11-19T18:27:11.294Z,10.90
2022-11-19T18:29:43.365Z,10.90
2022-11-19T18:32:17.004Z,10.90
2022-11-19T18:34:49.070Z,11.00
2022-11-19T18:37:20.960Z,11.00
2022-11-19T18:39:53.712Z,11.00
2022-11-19T18:42:26.347Z,11.00
2022-11-19T18:44:58.228Z,11.00
2022-11-19T18:47:30.127Z,11.00
2022-11-19T18:50:02.058Z,10.90
2022-11-19T18:52:34.048Z,10.90
2022-11-19T18:55:06.668Z,10.80
2022-11-19T18:57:38.516Z,10.90
2022-11-19T19:00:11.041Z,10.90
2022-11-19T19:02:42.891Z,10.80
2022-11-19T19:05:14.872Z,10.80
2022-11-19T19:07:46.774Z,10.70
2022-11-19T19:10:18.792Z,10.70
2022-11-19T19:12:50.663Z,10.70
2022-11-19T19:15:22.662Z,10.80
2022-11-19T19:17:54.545Z,10.70
2022-11-19T19:20:26.947Z,10.60
2022-11-19T19:22:58.858Z,10.50
2022-11-19T19:25:30.692Z,10.50
2022-11-19T19:28:02.511Z,10.40
2022-11-19T19:30:35.772Z,10.40
2022-11-19T19:33:07.724Z,10.40
2022-11-19T19:35:39.569Z,10.50
2022-11-19T19:38:11.546Z,10.60
2022-11-19T19:40:43.702Z,10.60
2022-11-19T19:43:15.909Z,10.60
2022-11-19T19:45:49.075Z,10.50
2022-11-19T19:48:20.991Z,10.50
2022-11-19T19:50:52.864Z,10.40
2022-11-19T19:53:24.834Z,10.20
2022-11-19T19:56:07.887Z,10.10
2022-11-19T19:58:40.639Z,10.10
2022-11-19T20:01:33.886Z,10.10
2022-11-19T20:04:11.523Z,10.00
2022-11-19T20:06:47.877Z,10.10
2022-11-19T20:09:19.801Z,10.10
2022-11-19T20:11:51.972Z,10.10
2022-11-19T20:14:23.891Z,10.10
2022-11-19T20:16:55.828Z,10.10
2022-11-19T20:19:27.749Z,10.20
2022-11-19T20:21:59.719Z,10.20
2022-11-19T20:24:31.557Z,10.20
2022-11-19T20:27:03.530Z,10.20
2022-11-19T20:29:35.479Z,10.10
2022-11-19T20:32:07.452Z,10.00
2022-11-19T20:34:39.377Z,9.90
2022-11-19T20:37:11.490Z,9.90
2022-11-19T20:39:43.428Z,9.90
2022-11-19T20:42:34.053Z,9.80
2022-11-19T20:45:08.226Z,9.80
2022-11-19T20:47:40.251Z,9.70
2022-11-19T20:50:12.236Z,9.80
2022-11-19T20:52:44.175Z,9.90
2022-11-19T20:55:16.067Z,9.80
2022-11-19T20:57:48.024Z,9.80
2022-11-19T21:00:20.174Z,9.90
2022-11-19T21:02:52.201Z,10.00
2022-11-19T21:05:24.080Z,9.90
2022-11-19T21:07:55.962Z,9.80
2022-11-19T21:10:27.797Z,9.70
2022-11-19T21:13:02.956Z,9.70
2022-11-19T21:15:38.002Z,9.70
2022-11-19T21:18:10.032Z,9.70
2022-11-19T21:20:41.906Z,9.80
2022-11-19T21:23:13.885Z,9.90
2022-11-19T21:25:45.955Z,10.00
2022-11-19T21:28:18.074Z,10.10
2022-11-19T21:30:52.883Z,10.20
2022-11-19T21:33:28.585Z,10.00
2022-11-19T21:36:02.336Z,9.70
2022-11-19T21:38:35.024Z,9.50
2022-11-19T21:41:07.459Z,9.50
2022-11-19T21:43:39.336Z,9.40
2022-11-19T21:46:11.425Z,9.40
2022-11-19T21:48:43.304Z,9.30
2022-11-19T21:51:17.897Z,9.30
2022-11-19T21:53:55.588Z,9.30
2022-11-19T21:56:31.354Z,9.30
2022-11-19T21:59:07.824Z,9.20
2022-11-19T22:01:39.856Z,9.10
2022-11-19T22:04:13.750Z,9.20
2022-11-19T22:06:45.688Z,9.20
2022-11-19T22:09:17.762Z,9.10
2022-11-19T22:11:49.768Z,9.20
2022-11-19T22:14:21.788Z,9.30
2022-11-19T22:16:54.653Z,9.30
2022-11-19T22:19:26.591Z,9.20
2022-11-19T22:21:58.514Z,9.10
2022-11-19T22:24:30.403Z,9.10
2022-11-19T22:27:02.336Z,9.00
2022-11-19T22:29:34.724Z,8.90
2022-11-19T22:32:06.809Z,8.80
2022-11-19T22:34:38.708Z,8.70
2022-11-19T22:37:10.621Z,8.60
2022-11-19T22:39:43.911Z,8.60
2022-11-19T22:42:15.866Z,8.60
2022-11-19T22:44:47.835Z,8.60
2022-11-19T22:47:19.800Z,8.70
2022-11-19T22:49:51.766Z,8.80
2022-11-19T22:52:23.718Z,8.80
2022-11-19T22:54:55.609Z,8.80
2022-11-19T22:57:27.976Z,8.70
2022-11-19T22:59:59.965Z,8.60
2022-11-19T23:02:31.994Z,8.60
2022-11-19T23:05:04.208Z,8.50
2022-11-19T23:07:36.125Z,8.50
2022-11-19T23:10:08.452Z,8.50
2022-11-19T23:12:58.907Z,8.50
2022-11-19T23:15:30.892Z,8.50
2022-11-19T23:18:02.834Z,8.50
2022-11-19T23:20:34.814Z,8.40
2022-11-19T23:23:06.825Z,8.50
2022-11-19T23:25:38.713Z,8.70
2022-11-19T23:28:10.572Z,8.70
2022-11-19T23:30:42.629Z,8.80
2022-11-19T23:33:14.553Z,8.90
2022-11-19T23:35:46.849Z,8.90
2022-11-19T23:38:18.719Z,8.80
2022-11-19T23:40:58.448Z,8.80
2022-11-19T23:43:30.948Z,8.80
2022-11-19T23:46:06.891Z,8.70
2022-11-19T23:48:40.290Z,8.60
2022-11-19T23:51:17.845Z,8.60
2022-11-19T23:53:49.857Z,8.60
2022-11-19T23:56:23.699Z,8.50
2022-11-19T23:58:55.632Z,8.50
